Home   Weather   Norway   Mandal   Past weeks
Flag for Norway

Past Weather in Mandal, Norway — Yesterday and Last 2 Weeks

Currently: 59 °F. Sunny. (Weather station: Kristiansand / Kjevik, Norway). See more current weather

Past Weather in Mandal — Graph

°F

Mandal Temperature Yesterday

Maximum temperature yesterday: 64 °F (at 11:50 am)
Minimum temperature yesterday: 48 °F (at 5:50 am)
Average temperature yesterday: 58 °F

High & Low Weather Summary for the Past Weeks

 TemperatureHumidityPressure
High79 °F (Aug 14, 12:20 pm)100% (Aug 4, 1:50 pm)30.36 "Hg (Aug 4, 1:50 pm)
Low46 °F (Aug 19, 5:50 am)33% (Aug 5, 3:20 pm)29.68 "Hg (Aug 16, 6:20 am)
Average64 °F73%30.03 "Hg
* Reported Aug 4 8:20 am — Aug 19 8:50 am, Mandal. Weather by CustomWeather, © 2022

Note: Actual official high and low records may vary slightly from our data, if they occured in-between our weather recording intervals... More about our weather records

Mandal Weather History for the Previous 24 Hours

Scroll right to see more
 ConditionsComfort  
Time TempWeatherWind HumidityBarometerVisibility
8:50 am
Fri, Aug 19
54 °FSunny.3 mph88%29.89 "Hg10 mi
8:20 am52 °FSunny.5 mph94%29.89 "Hg10 mi
7:50 am52 °FPassing clouds.2 mph94%29.89 "HgN/A
7:20 am50 °FPassing clouds.2 mph100%29.89 "HgN/A
6:50 am48 °FPassing clouds.5 mph100%29.89 "HgN/A
6:20 am46 °FPassing clouds.3 mph100%29.89 "HgN/A
5:50 am46 °FPassing clouds.3 mph100%29.89 "HgN/A
5:20 am48 °FCool.3 mph100%29.89 "HgN/A
4:20 am48 °FCool.5 mph100%29.89 "HgN/A
3:50 am50 °FCool.2 mph88%29.89 "HgN/A
3:20 am50 °FCool.3 mph88%29.89 "HgN/A
1:20 am55 °FOvercast.2 mph72%29.89 "HgN/A
12:50 am55 °FOvercast.3 mph72%29.92 "HgN/A
12:20 am55 °FPassing clouds.6 mph72%29.92 "HgN/A
11:20 pm
Thu, Aug 18
57 °FPassing clouds.5 mph67%29.92 "HgN/A
9:50 pm59 °FClear.5 mph72%29.92 "Hg10 mi
9:20 pm59 °FClear.7 mph72%29.89 "Hg10 mi
8:20 pm63 °FSunny.7 mph64%29.89 "Hg10 mi
7:50 pm63 °FSunny.7 mph64%29.89 "Hg10 mi
7:20 pm63 °FSunny.7 mph64%29.89 "Hg10 mi
6:50 pm63 °FPassing clouds.8 mph64%29.89 "HgN/A
6:20 pm63 °FSunny.9 mph64%29.89 "Hg10 mi
5:50 pm64 °FPassing clouds.12 mph60%29.89 "HgN/A
5:20 pm64 °FPassing clouds.12 mph64%29.89 "HgN/A
4:20 pm64 °FScattered clouds.6 mph68%29.92 "HgN/A
3:20 pm61 °FDrizzle. Partly sunny.3 mph83%29.92 "HgN/A
2:50 pm63 °FPartly sunny.5 mph73%29.92 "HgN/A
2:20 pm63 °FPartly sunny.5 mph77%29.92 "HgN/A
1:50 pm63 °FScattered clouds.5 mph83%29.92 "HgN/A
1:20 pm63 °FScattered clouds.2 mph77%29.92 "HgN/A
12:50 pm63 °FScattered clouds.2 mph77%29.92 "HgN/A
12:20 pm63 °FPassing clouds.3 mph77%29.92 "HgN/A
11:50 am64 °FSunny.1 mph68%29.92 "Hg10 mi
11:20 am61 °FSunny.6 mph83%29.92 "Hg10 mi
10:50 am61 °FSunny.3 mph83%29.92 "Hg10 mi
10:20 am59 °FSunny.1 mph82%29.92 "Hg10 mi
Weather by CustomWeather, © 2022

See weather overview